createdAt,value
2018-03-08T00:00:40.655Z,99.9
2018-03-08T00:01:47.575Z,99.9
2018-03-08T00:02:54.777Z,99.9
2018-03-08T00:04:01.991Z,99.9
2018-03-08T00:05:09.181Z,99.9
2018-03-08T00:06:16.382Z,99.9
2018-03-08T00:07:23.579Z,99.9
2018-03-08T00:08:30.794Z,99.9
2018-03-08T00:09:37.989Z,99.9
2018-03-08T00:10:45.189Z,99.9
2018-03-08T00:11:52.403Z,99.9
2018-03-08T00:12:59.330Z,99.9
2018-03-08T00:14:06.528Z,99.9
2018-03-08T00:15:13.454Z,99.9
2018-03-08T00:16:20.379Z,99.9
2018-03-08T00:17:27.572Z,99.9
2018-03-08T00:18:34.804Z,99.9
2018-03-08T00:19:42.007Z,99.9
2018-03-08T00:20:49.210Z,99.9
2018-03-08T00:21:56.131Z,99.9
2018-03-08T00:23:02.788Z,99.9
2018-03-08T00:24:09.708Z,99.9
2018-03-08T00:25:16.627Z,99.9
2018-03-08T00:26:23.574Z,99.9
2018-03-08T00:27:30.773Z,99.9
2018-03-08T00:28:37.695Z,99.9
2018-03-08T00:29:44.616Z,99.9
2018-03-08T00:30:51.812Z,99.9
2018-03-08T00:31:59.010Z,99.9
2018-03-08T00:33:05.958Z,99.9
2018-03-08T00:34:12.323Z,99.9
2018-03-08T00:35:19.260Z,99.9
2018-03-08T00:36:26.187Z,99.9
2018-03-08T00:37:33.111Z,99.9
2018-03-08T00:38:40.034Z,99.9
2018-03-08T00:39:47.233Z,99.9
2018-03-08T00:40:54.472Z,99.9
2018-03-08T00:42:01.679Z,99.9
2018-03-08T00:43:08.882Z,99.9
2018-03-08T00:44:16.078Z,99.9
2018-03-08T00:45:23.306Z,99.9
2018-03-08T00:46:30.505Z,99.9
2018-03-08T00:47:37.157Z,99.9
2018-03-08T00:48:44.353Z,99.9
2018-03-08T00:49:51.556Z,99.9
2018-03-08T00:50:58.204Z,99.9
2018-03-08T00:52:05.400Z,99.9
2018-03-08T00:53:12.597Z,99.9
2018-03-08T00:54:19.522Z,99.9
2018-03-08T00:55:26.168Z,99.9
2018-03-08T00:56:33.096Z,99.9
2018-03-08T00:57:40.296Z,99.9
2018-03-08T00:58:47.496Z,99.9
2018-03-08T00:59:54.696Z,99.9
2018-03-08T01:01:01.625Z,99.9
2018-03-08T01:02:08.552Z,99.9
2018-03-08T01:03:15.745Z,99.9
2018-03-08T01:04:22.949Z,99.9
2018-03-08T01:05:30.148Z,99.9
2018-03-08T01:06:37.352Z,99.9
2018-03-08T01:07:44.553Z,99.9
2018-03-08T01:08:51.476Z,99.9
2018-03-08T01:09:58.673Z,99.9
2018-03-08T01:11:05.873Z,99.9
2018-03-08T01:12:13.073Z,99.9
2018-03-08T01:13:19.991Z,99.9
2018-03-08T01:14:26.926Z,99.9
2018-03-08T01:15:33.582Z,99.9
2018-03-08T01:16:40.226Z,99.9
2018-03-08T01:17:47.185Z,99.9
2018-03-08T01:18:54.124Z,99.9
2018-03-08T01:20:01.048Z,99.9
2018-03-08T01:21:07.969Z,99.9
2018-03-08T01:22:15.167Z,99.9
2018-03-08T01:23:22.092Z,99.9
2018-03-08T01:24:29.027Z,99.9
2018-03-08T01:25:35.679Z,99.9
2018-03-08T01:26:42.328Z,99.9
2018-03-08T01:27:49.527Z,99.9
2018-03-08T01:28:56.457Z,99.9
2018-03-08T01:30:03.655Z,99.9
2018-03-08T01:31:10.308Z,99.9
2018-03-08T01:32:17.500Z,99.9
2018-03-08T01:33:24.149Z,99.9
2018-03-08T01:34:30.828Z,99.9
2018-03-08T01:35:37.749Z,99.9
2018-03-08T01:36:44.947Z,99.9
2018-03-08T01:37:52.151Z,99.9
2018-03-08T01:38:59.344Z,99.9
2018-03-08T01:40:06.542Z,99.9
2018-03-08T01:41:13.782Z,99.9
2018-03-08T01:42:20.979Z,99.9
2018-03-08T01:43:27.901Z,99.9
2018-03-08T01:44:34.829Z,99.9
2018-03-08T01:45:41.747Z,99.9
2018-03-08T01:46:48.685Z,99.9
2018-03-08T01:47:55.881Z,99.9
2018-03-08T01:49:03.079Z,99.9
2018-03-08T01:50:10.279Z,99.9
2018-03-08T01:51:17.490Z,99.9
2018-03-08T01:52:24.420Z,99.9
2018-03-08T01:53:31.625Z,99.9
2018-03-08T01:54:38.822Z,99.9
2018-03-08T01:55:45.748Z,99.9
2018-03-08T01:56:53.003Z,99.9
2018-03-08T01:57:59.954Z,99.9
2018-03-08T01:59:07.154Z,99.9
2018-03-08T02:00:14.079Z,99.9
2018-03-08T02:01:21.281Z,99.9
2018-03-08T02:02:27.932Z,99.9
2018-03-08T02:03:35.138Z,99.9
2018-03-08T02:04:42.061Z,99.9
2018-03-08T02:05:49.258Z,99.9
2018-03-08T02:06:56.183Z,99.9
2018-03-08T02:08:03.103Z,99.9
2018-03-08T02:09:09.751Z,99.9
2018-03-08T02:10:17.150Z,99.9
2018-03-08T02:11:24.075Z,99.9
2018-03-08T02:12:31.270Z,99.9
2018-03-08T02:13:38.203Z,99.9
2018-03-08T02:14:45.386Z,99.9
2018-03-08T02:15:52.580Z,99.9
2018-03-08T02:16:59.773Z,99.9
2018-03-08T02:18:06.971Z,99.9
2018-03-08T02:19:13.896Z,99.9
2018-03-08T02:20:21.099Z,99.9
2018-03-08T02:21:28.300Z,99.9
2018-03-08T02:22:35.505Z,99.9
2018-03-08T02:23:42.154Z,99.9
2018-03-08T02:24:48.793Z,99.9
2018-03-08T02:25:55.990Z,99.9
2018-03-08T02:27:03.194Z,99.9
2018-03-08T02:28:09.834Z,99.9
2018-03-08T02:29:17.034Z,99.9
2018-03-08T02:30:23.694Z,99.9
2018-03-08T02:31:30.899Z,99.9
2018-03-08T02:32:37.549Z,99.9
2018-03-08T02:33:44.746Z,99.9
2018-03-08T02:34:51.940Z,99.9
2018-03-08T02:35:59.140Z,99.9
2018-03-08T02:37:05.511Z,99.9
2018-03-08T02:38:12.440Z,99.9
2018-03-08T02:39:19.359Z,99.9
2018-03-08T02:40:26.562Z,99.9
2018-03-08T02:41:33.761Z,99.9
2018-03-08T02:42:40.402Z,99.9
2018-03-08T02:43:47.327Z,99.9
2018-03-08T02:44:54.247Z,99.9
2018-03-08T02:46:01.449Z,99.9
2018-03-08T02:47:08.366Z,99.9
2018-03-08T02:48:15.285Z,99.9
2018-03-08T02:49:22.486Z,99.9
2018-03-08T02:50:29.686Z,99.9
2018-03-08T02:51:36.340Z,99.9
2018-03-08T02:52:43.269Z,99.9
2018-03-08T02:53:50.469Z,99.9
2018-03-08T02:54:57.122Z,99.9
2018-03-08T02:56:04.319Z,99.9
2018-03-08T02:57:11.254Z,99.9
2018-03-08T02:58:18.181Z,99.9
2018-03-08T02:59:25.102Z,99.9
2018-03-08T03:00:32.303Z,99.9
2018-03-08T03:01:39.505Z,99.9
2018-03-08T03:02:46.472Z,99.9
2018-03-08T03:03:53.670Z,99.9
2018-03-08T03:05:00.311Z,99.9
2018-03-08T03:06:07.533Z,99.9
2018-03-08T03:07:14.729Z,99.9
2018-03-08T03:08:21.933Z,99.9
2018-03-08T03:09:29.135Z,99.9
2018-03-08T03:10:36.337Z,99.9
2018-03-08T03:11:43.544Z,99.9
2018-03-08T03:12:50.739Z,99.9
2018-03-08T03:13:57.939Z,99.9
2018-03-08T03:15:06.552Z,99.9
2018-03-08T03:16:13.472Z,99.9
2018-03-08T03:17:20.664Z,99.9
2018-03-08T03:18:27.860Z,99.9
2018-03-08T03:19:35.063Z,99.9
2018-03-08T03:20:42.260Z,99.9
2018-03-08T03:21:48.902Z,99.9
2018-03-08T03:22:56.097Z,99.9
2018-03-08T03:24:03.013Z,99.9
2018-03-08T03:25:10.216Z,99.9
2018-03-08T03:26:17.415Z,99.9
2018-03-08T03:27:24.333Z,99.9
2018-03-08T03:28:31.255Z,99.9
2018-03-08T03:29:38.185Z,99.9
2018-03-08T03:30:45.383Z,99.9
2018-03-08T03:31:52.040Z,99.9
2018-03-08T03:32:58.959Z,99.9
2018-03-08T03:34:06.159Z,99.9
2018-03-08T03:35:13.095Z,99.9
2018-03-08T03:36:20.289Z,99.9
2018-03-08T03:37:27.235Z,99.9
2018-03-08T03:38:33.888Z,99.9
2018-03-08T03:39:40.546Z,99.9
2018-03-08T03:40:47.754Z,99.9
2018-03-08T03:41:54.953Z,99.9
2018-03-08T03:43:02.152Z,99.9
2018-03-08T03:44:09.352Z,99.9
2018-03-08T03:45:16.549Z,99.9
2018-03-08T03:46:23.194Z,99.9
2018-03-08T03:47:29.843Z,99.9
2018-03-08T03:48:36.765Z,99.9
2018-03-08T03:49:43.412Z,99.9
2018-03-08T03:50:50.608Z,99.9
2018-03-08T03:51:57.812Z,99.9
2018-03-08T03:53:05.017Z,99.9
2018-03-08T03:54:11.936Z,99.9
2018-03-08T03:55:19.136Z,99.9
2018-03-08T03:56:26.339Z,99.9
2018-03-08T03:57:33.266Z,99.9
2018-03-08T03:58:40.468Z,99.9
2018-03-08T03:59:47.111Z,99.9
2018-03-08T04:00:54.036Z,99.9
2018-03-08T04:02:00.674Z,99.9
2018-03-08T04:03:07.600Z,99.9
2018-03-08T04:04:14.528Z,99.9
2018-03-08T04:05:21.448Z,99.9
2018-03-08T04:06:28.103Z,99.9
2018-03-08T04:07:35.310Z,99.9
2018-03-08T04:08:42.512Z,99.9
2018-03-08T04:09:49.709Z,99.9
2018-03-08T04:10:56.906Z,99.9
2018-03-08T04:12:03.555Z,99.9
2018-03-08T04:13:10.754Z,99.9
2018-03-08T04:14:17.673Z,99.9
2018-03-08T04:15:24.874Z,99.9
2018-03-08T04:16:32.087Z,99.9
2018-03-08T04:17:38.734Z,99.9
2018-03-08T04:18:45.927Z,99.9
2018-03-08T04:19:52.857Z,99.9
2018-03-08T04:20:59.782Z,99.9
2018-03-08T04:22:06.432Z,99.9
2018-03-08T04:23:13.360Z,99.9
2018-03-08T04:24:20.009Z,99.9
2018-03-08T04:25:27.206Z,99.9
2018-03-08T04:26:34.405Z,99.9
2018-03-08T04:27:41.607Z,99.9
2018-03-08T04:28:48.518Z,99.9
2018-03-08T04:29:55.449Z,99.9
2018-03-08T04:31:02.651Z,99.9
2018-03-08T04:32:09.852Z,99.9
2018-03-08T04:33:16.777Z,99.9
2018-03-08T04:34:23.975Z,99.9
2018-03-08T04:35:31.177Z,99.9
2018-03-08T04:36:38.097Z,99.9
2018-03-08T04:37:45.293Z,99.9
2018-03-08T04:38:52.490Z,99.9
2018-03-08T04:39:59.418Z,99.9
2018-03-08T04:41:06.340Z,99.9
2018-03-08T04:42:13.271Z,99.9
2018-03-08T04:43:20.468Z,99.9
2018-03-08T04:44:27.118Z,99.9
2018-03-08T04:45:33.771Z,99.9
2018-03-08T04:46:40.693Z,99.9
2018-03-08T04:47:47.893Z,99.9
2018-03-08T04:48:54.842Z,99.9
2018-03-08T04:50:02.124Z,99.9
2018-03-08T04:51:09.047Z,99.9
2018-03-08T04:52:16.244Z,99.9
2018-03-08T04:53:23.447Z,99.9
2018-03-08T04:54:30.652Z,99.9
2018-03-08T04:55:37.859Z,99.9
2018-03-08T04:56:45.057Z,99.9
2018-03-08T04:57:51.707Z,99.9
2018-03-08T04:58:58.907Z,99.9
2018-03-08T05:00:06.104Z,99.9
2018-03-08T05:01:13.035Z,99.9
2018-03-08T05:02:19.972Z,99.9
2018-03-08T05:03:26.903Z,99.9
2018-03-08T05:04:34.101Z,99.9
2018-03-08T05:05:41.029Z,99.9
2018-03-08T05:06:48.267Z,99.9
2018-03-08T05:07:54.924Z,99.9
2018-03-08T05:09:02.111Z,99.9
2018-03-08T05:10:09.077Z,99.9
2018-03-08T05:11:16.344Z,99.9
2018-03-08T05:12:23.277Z,99.9
2018-03-08T05:13:30.472Z,99.9
2018-03-08T05:14:37.671Z,99.9
2018-03-08T05:15:44.876Z,99.9
2018-03-08T05:16:52.072Z,99.9
2018-03-08T05:17:59.268Z,99.9
2018-03-08T05:19:06.468Z,99.9
2018-03-08T05:20:13.675Z,99.9
2018-03-08T05:21:20.598Z,99.9
2018-03-08T05:22:27.796Z,99.9
2018-03-08T05:23:34.719Z,99.9
2018-03-08T05:24:41.923Z,99.9
2018-03-08T05:25:49.131Z,99.9
2018-03-08T05:26:56.056Z,99.9
2018-03-08T05:28:02.984Z,99.9
2018-03-08T05:29:10.186Z,99.9
2018-03-08T05:30:17.387Z,99.9
2018-03-08T05:31:24.590Z,99.9
2018-03-08T05:32:31.232Z,99.9
2018-03-08T05:33:38.161Z,99.9
2018-03-08T05:34:45.349Z,99.9
2018-03-08T05:35:52.551Z,99.9
2018-03-08T05:36:59.477Z,99.9
2018-03-08T05:38:06.671Z,99.9
2018-03-08T05:39:13.870Z,99.9
2018-03-08T05:40:21.071Z,99.9
2018-03-08T05:41:27.997Z,99.9
2018-03-08T05:42:34.916Z,99.9
2018-03-08T05:43:41.553Z,99.9
2018-03-08T05:44:48.212Z,99.9
2018-03-08T05:45:55.400Z,99.9
2018-03-08T05:47:02.043Z,99.9
2018-03-08T05:48:08.963Z,99.9
2018-03-08T05:49:15.610Z,99.9
2018-03-08T05:50:22.812Z,99.9
2018-03-08T05:51:29.458Z,99.9
2018-03-08T05:52:36.384Z,99.9
2018-03-08T05:53:43.579Z,99.9
2018-03-08T05:54:50.777Z,99.9
2018-03-08T05:55:57.425Z,99.9
2018-03-08T05:57:04.625Z,99.9
2018-03-08T05:58:11.817Z,99.9
2018-03-08T05:59:18.474Z,99.9
2018-03-08T06:00:25.672Z,99.9
2018-03-08T06:01:32.867Z,99.9
2018-03-08T06:02:40.066Z,99.9
2018-03-08T06:03:47.001Z,99.9
2018-03-08T06:04:53.659Z,99.9
2018-03-08T06:06:00.589Z,99.9
2018-03-08T06:07:07.513Z,99.9
2018-03-08T06:08:14.711Z,99.9
2018-03-08T06:09:21.350Z,99.9
2018-03-08T06:10:28.548Z,99.9
2018-03-08T06:11:35.747Z,99.9
2018-03-08T06:12:42.940Z,99.9
2018-03-08T06:13:49.590Z,99.9
2018-03-08T06:14:56.517Z,99.9
2018-03-08T06:16:03.437Z,99.9
2018-03-08T06:17:10.361Z,99.9
2018-03-08T06:18:17.020Z,99.9
2018-03-08T06:19:23.693Z,99.9
2018-03-08T06:20:30.714Z,99.9
2018-03-08T06:21:37.634Z,99.9
2018-03-08T06:22:44.273Z,99.9
2018-03-08T06:23:51.190Z,99.9
2018-03-08T06:24:58.392Z,99.9
2018-03-08T06:26:05.584Z,99.9
2018-03-08T06:27:12.783Z,99.9
2018-03-08T06:28:19.712Z,99.9
2018-03-08T06:29:26.908Z,99.9
2018-03-08T06:30:33.829Z,99.9
2018-03-08T06:31:41.030Z,99.9
2018-03-08T06:32:48.230Z,99.9
2018-03-08T06:33:55.433Z,99.9
2018-03-08T06:35:02.627Z,99.9
2018-03-08T06:36:09.820Z,99.9
2018-03-08T06:37:17.027Z,99.9
2018-03-08T06:38:24.224Z,99.9
2018-03-08T06:39:31.147Z,99.9
2018-03-08T06:40:38.351Z,99.9
2018-03-08T06:41:45.554Z,99.9
2018-03-08T06:42:52.750Z,99.9
2018-03-08T06:43:59.945Z,99.9
2018-03-08T06:45:07.138Z,99.9
2018-03-08T06:46:14.065Z,99.9
2018-03-08T06:47:21.254Z,99.9
2018-03-08T06:48:28.453Z,99.9
2018-03-08T06:49:35.651Z,99.9
2018-03-08T06:50:42.852Z,99.9
2018-03-08T06:51:50.048Z,99.9
2018-03-08T06:52:57.250Z,99.9
2018-03-08T06:54:04.452Z,99.9
2018-03-08T06:55:11.659Z,99.9
2018-03-08T06:56:18.858Z,99.9
2018-03-08T06:57:25.774Z,99.9
2018-03-08T06:58:32.983Z,99.9
2018-03-08T06:59:39.908Z,99.9
2018-03-08T07:00:46.554Z,99.9
2018-03-08T07:01:53.485Z,99.9
2018-03-08T07:03:00.678Z,99.9
2018-03-08T07:04:07.604Z,99.9
2018-03-08T07:05:14.526Z,99.9
2018-03-08T07:06:21.453Z,99.9
2018-03-08T07:07:28.103Z,99.9
2018-03-08T07:08:36.111Z,99.9
2018-03-08T07:09:43.307Z,99.9
2018-03-08T07:10:50.283Z,99.9
2018-03-08T07:11:57.502Z,99.9
2018-03-08T07:13:04.699Z,99.9
2018-03-08T07:14:11.898Z,99.9
2018-03-08T07:15:19.113Z,99.9
2018-03-08T07:16:26.308Z,99.9
2018-03-08T07:17:33.509Z,99.9
2018-03-08T07:18:40.161Z,99.9
2018-03-08T07:19:46.806Z,99.9
2018-03-08T07:20:54.003Z,99.9
2018-03-08T07:22:01.203Z,99.9
2018-03-08T07:23:08.410Z,99.9
2018-03-08T07:24:15.329Z,99.9
2018-03-08T07:25:22.524Z,99.9
2018-03-08T07:26:29.724Z,99.9
2018-03-08T07:27:36.649Z,99.9
2018-03-08T07:28:43.849Z,99.9
2018-03-08T07:29:51.047Z,99.9
2018-03-08T07:30:58.249Z,99.9
2018-03-08T07:32:05.445Z,99.9
2018-03-08T07:33:12.362Z,99.9
2018-03-08T07:34:19.287Z,99.9
2018-03-08T07:35:26.692Z,99.9
2018-03-08T07:36:33.896Z,99.9
2018-03-08T07:37:41.091Z,99.9
2018-03-08T07:38:48.294Z,99.9
2018-03-08T07:39:55.493Z,99.9
2018-03-08T07:41:02.689Z,99.9
2018-03-08T07:42:09.888Z,99.9
2018-03-08T07:43:17.087Z,99.9
2018-03-08T07:44:24.286Z,99.9
2018-03-08T07:45:31.214Z,99.9
2018-03-08T07:46:38.130Z,99.9
2018-03-08T07:47:45.326Z,99.9
2018-03-08T07:48:52.258Z,99.9
2018-03-08T07:49:59.456Z,99.9
2018-03-08T07:51:06.379Z,99.9
2018-03-08T07:52:13.584Z,99.9
2018-03-08T07:53:20.505Z,99.9
2018-03-08T07:54:27.424Z,99.9
2018-03-08T07:55:34.077Z,99.9
2018-03-08T07:56:41.272Z,99.9
2018-03-08T07:57:47.920Z,99.9
2018-03-08T07:58:54.843Z,99.9
2018-03-08T08:00:02.046Z,99.9
2018-03-08T08:01:09.241Z,99.9
2018-03-08T08:02:16.483Z,99.9
2018-03-08T08:03:23.691Z,99.9
2018-03-08T08:04:30.894Z,99.9
2018-03-08T08:05:38.095Z,99.9
2018-03-08T08:06:45.011Z,99.9
2018-03-08T08:07:52.208Z,99.9
2018-03-08T08:08:58.581Z,99.9
2018-03-08T08:10:05.503Z,99.9
2018-03-08T08:11:12.702Z,99.9
2018-03-08T08:12:19.895Z,99.9
2018-03-08T08:13:27.095Z,99.9
2018-03-08T08:14:34.294Z,99.9
2018-03-08T08:15:41.217Z,99.9
2018-03-08T08:16:48.418Z,99.9
2018-03-08T08:17:55.619Z,99.9
2018-03-08T08:19:02.816Z,99.9
2018-03-08T08:20:10.019Z,99.9
2018-03-08T08:21:17.211Z,99.9
2018-03-08T08:22:24.409Z,99.9
2018-03-08T08:23:31.604Z,99.9
2018-03-08T08:24:39.006Z,99.9
2018-03-08T08:25:46.202Z,99.9
2018-03-08T08:26:53.399Z,99.9
2018-03-08T08:28:00.602Z,99.9
2018-03-08T08:29:07.519Z,99.9
2018-03-08T08:30:14.440Z,99.9
2018-03-08T08:31:21.358Z,99.9
2018-03-08T08:32:28.551Z,99.9
2018-03-08T08:33:35.476Z,99.9
2018-03-08T08:34:42.671Z,99.9
2018-03-08T08:35:49.597Z,99.9
2018-03-08T08:36:56.253Z,99.9
2018-03-08T08:38:03.178Z,99.9
2018-03-08T08:39:10.106Z,99.9
2018-03-08T08:40:17.028Z,99.9
2018-03-08T08:42:30.572Z,99.9
2018-03-08T08:43:37.500Z,99.9
2018-03-08T08:44:44.426Z,99.9
2018-03-08T08:45:51.662Z,99.9
2018-03-08T08:46:58.860Z,99.9
2018-03-08T08:48:05.782Z,99.9
2018-03-08T08:49:12.981Z,99.9
2018-03-08T08:50:19.909Z,99.9
2018-03-08T08:51:26.829Z,99.9
2018-03-08T08:52:34.036Z,99.9
2018-03-08T08:53:40.964Z,99.9
2018-03-08T08:54:48.166Z,99.9
2018-03-08T08:55:55.096Z,99.9
2018-03-08T08:57:02.300Z,99.9
2018-03-08T08:58:09.494Z,99.9
2018-03-08T08:59:16.694Z,99.9
2018-03-08T09:00:23.888Z,99.9
2018-03-08T09:01:30.538Z,99.9
2018-03-08T09:02:37.735Z,99.9
2018-03-08T09:03:44.933Z,99.9
2018-03-08T09:04:52.134Z,99.9
2018-03-08T09:05:59.062Z,99.9
2018-03-08T09:07:05.714Z,99.9
2018-03-08T09:08:12.368Z,99.9
2018-03-08T09:09:19.289Z,99.9
2018-03-08T09:10:26.219Z,99.9
2018-03-08T09:11:33.146Z,99.9
2018-03-08T09:12:40.350Z,99.9
2018-03-08T09:13:47.289Z,99.9
2018-03-08T09:14:54.220Z,99.9
2018-03-08T09:16:01.139Z,99.9
2018-03-08T09:17:08.343Z,99.9
2018-03-08T09:18:15.792Z,99.9
2018-03-08T09:19:22.995Z,99.9
2018-03-08T09:20:30.198Z,99.9
2018-03-08T09:21:37.122Z,99.9
2018-03-08T09:22:44.322Z,99.9
2018-03-08T09:23:51.512Z,99.9
2018-03-08T09:24:58.162Z,99.9
2018-03-08T09:26:05.082Z,99.9
2018-03-08T09:27:12.008Z,99.9
2018-03-08T09:28:19.208Z,99.9
2018-03-08T09:29:26.136Z,99.9
2018-03-08T09:30:33.334Z,99.9
2018-03-08T09:31:40.259Z,99.9
2018-03-08T09:32:47.181Z,99.9
2018-03-08T09:33:54.412Z,99.9
2018-03-08T09:35:01.903Z,99.9
2018-03-08T09:36:08.820Z,99.9
2018-03-08T09:37:16.017Z,99.9
2018-03-08T09:38:22.949Z,99.9
2018-03-08T09:39:29.878Z,99.9
2018-03-08T09:40:36.529Z,99.9
2018-03-08T09:41:43.458Z,99.9
2018-03-08T09:42:50.649Z,99.9
2018-03-08T09:43:57.290Z,99.9
2018-03-08T09:45:03.661Z,99.9
2018-03-08T09:46:10.863Z,99.9
2018-03-08T09:47:17.794Z,99.9
2018-03-08T09:48:24.447Z,99.9
2018-03-08T09:49:31.093Z,99.9
2018-03-08T09:50:38.295Z,99.9
2018-03-08T09:51:45.528Z,99.9
2018-03-08T09:52:52.559Z,99.9
2018-03-08T09:53:59.766Z,99.9
2018-03-08T09:55:06.687Z,99.9
2018-03-08T09:56:13.888Z,99.9
2018-03-08T09:57:20.821Z,99.9
2018-03-08T09:58:27.750Z,99.9
2018-03-08T09:59:34.674Z,99.9
2018-03-08T10:00:41.601Z,99.9
2018-03-08T10:01:48.796Z,99.9
2018-03-08T10:02:55.742Z,99.9
2018-03-08T10:04:02.944Z,99.9
2018-03-08T10:05:09.601Z,99.9
2018-03-08T10:06:16.247Z,99.9
2018-03-08T10:07:23.450Z,99.9
2018-03-08T10:08:30.901Z,99.9
2018-03-08T10:09:37.822Z,99.9
2018-03-08T10:10:45.025Z,99.9
2018-03-08T10:11:52.228Z,99.9
2018-03-08T10:12:59.153Z,99.9
2018-03-08T10:14:06.334Z,99.9
2018-03-08T10:15:12.990Z,99.9
2018-03-08T10:16:20.190Z,99.9
2018-03-08T10:17:27.400Z,99.9
2018-03-08T10:18:34.318Z,99.9
2018-03-08T10:19:40.974Z,99.9
2018-03-08T10:20:47.903Z,99.9
2018-03-08T10:21:54.828Z,99.9
2018-03-08T10:23:01.751Z,99.9
2018-03-08T10:24:08.397Z,99.9
2018-03-08T10:25:15.853Z,99.9
2018-03-08T10:26:22.780Z,99.9
2018-03-08T10:27:29.991Z,99.9
2018-03-08T10:28:37.193Z,99.9
2018-03-08T10:29:44.393Z,99.9
2018-03-08T10:30:51.606Z,99.9
2018-03-08T10:31:58.816Z,99.9
2018-03-08T10:33:06.024Z,99.9
2018-03-08T10:34:13.221Z,99.9
2018-03-08T10:35:20.140Z,99.9
2018-03-08T10:36:27.076Z,99.9
2018-03-08T10:37:33.738Z,99.9
2018-03-08T10:38:40.934Z,99.9
2018-03-08T10:39:48.138Z,99.9
2018-03-08T10:40:55.344Z,99.9
2018-03-08T10:42:02.632Z,99.9
2018-03-08T10:43:09.837Z,99.9
2018-03-08T10:44:17.042Z,99.9
2018-03-08T10:45:24.244Z,99.9
2018-03-08T10:46:31.457Z,99.9
2018-03-08T10:47:38.650Z,99.9
2018-03-08T10:50:08.437Z,99.9
2018-03-08T10:51:15.092Z,99.9
2018-03-08T10:52:22.317Z,99.9
2018-03-08T10:53:29.528Z,99.9
2018-03-08T10:54:36.448Z,99.9
2018-03-08T10:55:43.374Z,99.9
2018-03-08T10:56:50.308Z,99.9
2018-03-08T10:57:57.229Z,99.9
2018-03-08T10:59:04.433Z,99.9
2018-03-08T11:00:11.645Z,99.9
2018-03-08T11:01:18.576Z,99.9
2018-03-08T11:02:25.502Z,99.9
2018-03-08T11:03:32.428Z,99.9
2018-03-08T11:04:39.635Z,99.9
2018-03-08T11:05:46.559Z,99.9
2018-03-08T11:06:53.759Z,99.9
2018-03-08T11:08:00.963Z,99.9
2018-03-08T11:09:07.891Z,99.9
2018-03-08T11:10:14.812Z,99.9
2018-03-08T11:11:21.733Z,99.9
2018-03-08T11:12:28.939Z,99.9
2018-03-08T11:13:35.864Z,99.9
2018-03-08T11:14:43.317Z,99.9
2018-03-08T11:15:50.245Z,99.9
2018-03-08T11:16:57.169Z,99.9
2018-03-08T11:18:03.820Z,99.9
2018-03-08T11:19:11.023Z,99.9
2018-03-08T11:20:18.233Z,99.9
2018-03-08T11:21:24.891Z,99.9
2018-03-08T11:22:32.087Z,99.9
2018-03-08T11:23:39.336Z,99.9
2018-03-08T11:24:46.566Z,99.9
2018-03-08T11:25:53.241Z,99.9
2018-03-08T11:27:00.444Z,99.9
2018-03-08T11:28:07.645Z,99.9
2018-03-08T11:29:14.846Z,99.9
2018-03-08T11:30:21.784Z,99.9
2018-03-08T11:31:28.717Z,99.9
2018-03-08T11:32:35.639Z,99.9
2018-03-08T11:33:42.563Z,99.9
2018-03-08T11:34:49.493Z,99.9
2018-03-08T11:35:56.696Z,99.9
2018-03-08T11:37:03.896Z,99.9
2018-03-08T11:38:11.098Z,99.9
2018-03-08T11:39:18.031Z,99.9
2018-03-08T11:40:25.232Z,99.9
2018-03-08T11:41:32.161Z,99.9
2018-03-08T11:42:39.097Z,99.9
2018-03-08T11:43:46.308Z,99.9
2018-03-08T11:44:53.514Z,99.9
2018-03-08T11:46:00.715Z,99.9
2018-03-08T11:47:07.922Z,99.9
2018-03-08T11:48:15.124Z,99.9
2018-03-08T11:49:22.325Z,99.9
2018-03-08T11:50:29.525Z,99.9
2018-03-08T11:51:36.722Z,99.9
2018-03-08T11:52:43.653Z,99.9
2018-03-08T11:53:50.855Z,99.9
2018-03-08T11:54:57.879Z,99.9
2018-03-08T11:56:05.361Z,99.9
2018-03-08T11:57:12.566Z,99.9
2018-03-08T11:58:19.769Z,99.9
2018-03-08T11:59:26.972Z,99.9
2018-03-08T12:00:34.178Z,99.9
2018-03-08T12:01:41.378Z,99.9
2018-03-08T12:02:48.576Z,99.9
2018-03-08T12:03:55.504Z,99.9
2018-03-08T12:05:02.718Z,99.9
2018-03-08T12:06:09.927Z,99.9
2018-03-08T12:07:17.142Z,99.9
2018-03-08T12:08:24.086Z,99.9
2018-03-08T12:09:31.285Z,99.9
2018-03-08T12:10:38.489Z,99.9
2018-03-08T12:11:45.697Z,99.9
2018-03-08T12:12:52.340Z,99.9
2018-03-08T12:13:59.546Z,99.9
2018-03-08T12:15:06.996Z,99.9
2018-03-08T12:16:14.195Z,99.9
2018-03-08T12:17:21.401Z,99.9
2018-03-08T12:18:28.598Z,99.9
2018-03-08T12:19:35.803Z,99.9
2018-03-08T12:20:43.003Z,99.9
2018-03-08T12:21:50.206Z,99.9
2018-03-08T12:22:57.408Z,99.9
2018-03-08T12:24:04.614Z,99.9
2018-03-08T12:25:11.823Z,99.9
2018-03-08T12:26:19.021Z,99.9
2018-03-08T12:27:26.227Z,99.9
2018-03-08T12:28:33.156Z,99.9
2018-03-08T12:29:40.087Z,99.9
2018-03-08T12:30:47.016Z,99.9
2018-03-08T12:31:54.219Z,99.9
2018-03-08T12:33:00.864Z,99.9
2018-03-08T12:34:07.794Z,99.9
2018-03-08T12:35:14.164Z,99.9
2018-03-08T12:36:21.102Z,99.9
2018-03-08T12:37:28.310Z,99.9
2018-03-08T12:38:35.517Z,99.9
2018-03-08T12:39:42.718Z,99.9
2018-03-08T12:40:49.370Z,99.9
2018-03-08T12:41:56.298Z,99.9
2018-03-08T12:43:03.509Z,99.9
2018-03-08T12:44:10.713Z,99.9
2018-03-08T12:45:17.644Z,99.9
2018-03-08T12:46:24.353Z,99.9
2018-03-08T12:47:31.299Z,99.9
2018-03-08T12:48:38.268Z,99.9
2018-03-08T12:49:45.796Z,99.9
2018-03-08T12:50:53.000Z,99.9
2018-03-08T12:53:06.839Z,99.9
2018-03-08T12:54:13.762Z,99.9
2018-03-08T12:55:20.416Z,99.9
2018-03-08T12:56:27.621Z,99.9
2018-03-08T12:57:34.817Z,99.9
2018-03-08T12:58:42.035Z,99.9
2018-03-08T12:59:49.235Z,99.9
2018-03-08T13:00:56.443Z,99.9
2018-03-08T13:02:03.377Z,99.9
2018-03-08T13:03:10.878Z,99.9
2018-03-08T13:04:17.819Z,99.9
2018-03-08T13:05:24.782Z,99.9
2018-03-08T13:06:31.982Z,99.9
2018-03-08T13:07:39.214Z,99.9
2018-03-08T13:08:46.121Z,99.9
2018-03-08T13:09:53.477Z,99.9
2018-03-08T13:11:00.405Z,99.9
2018-03-08T13:12:07.330Z,99.9
2018-03-08T13:13:14.256Z,99.9
2018-03-08T13:14:21.710Z,99.9
2018-03-08T13:15:28.918Z,99.9
2018-03-08T13:16:36.126Z,99.9
2018-03-08T13:17:42.774Z,99.9
2018-03-08T13:18:49.977Z,99.9
2018-03-08T13:19:56.621Z,99.9
2018-03-08T13:21:03.821Z,99.9
2018-03-08T13:22:10.476Z,99.9
2018-03-08T13:23:17.411Z,99.9
2018-03-08T13:24:24.334Z,99.9
2018-03-08T13:25:31.262Z,99.9
2018-03-08T13:26:38.211Z,99.9
2018-03-08T13:27:45.412Z,99.9
2018-03-08T13:28:52.334Z,99.9
2018-03-08T13:29:59.534Z,99.9
2018-03-08T13:31:06.742Z,99.9
2018-03-08T13:32:13.669Z,99.9
2018-03-08T13:33:20.320Z,99.9
2018-03-08T13:34:27.253Z,99.9
2018-03-08T13:35:34.459Z,99.9
2018-03-08T13:36:41.657Z,99.9
2018-03-08T13:37:48.591Z,99.9
2018-03-08T13:38:55.528Z,99.9
2018-03-08T13:40:02.454Z,99.9
2018-03-08T13:41:09.658Z,99.9
2018-03-08T13:42:16.862Z,99.9
2018-03-08T13:43:23.517Z,99.9
2018-03-08T13:44:30.733Z,99.9
2018-03-08T13:45:37.371Z,99.9
2018-03-08T13:46:44.849Z,99.9
2018-03-08T13:47:52.059Z,99.9
2018-03-08T13:48:58.715Z,99.9
2018-03-08T13:50:05.920Z,99.9
2018-03-08T13:51:12.843Z,99.9
2018-03-08T13:52:19.812Z,99.9
2018-03-08T13:53:27.093Z,99.9
2018-03-08T13:54:34.017Z,99.9
2018-03-08T13:55:41.222Z,99.9
2018-03-08T13:56:48.153Z,99.9
2018-03-08T13:57:55.360Z,99.9
2018-03-08T13:59:02.282Z,99.9
2018-03-08T14:00:08.945Z,99.9
2018-03-08T14:01:15.601Z,99.9
2018-03-08T14:02:23.072Z,99.9
2018-03-08T14:03:30.259Z,99.9
2018-03-08T14:04:37.190Z,99.9
2018-03-08T14:05:44.402Z,99.9
2018-03-08T14:06:51.617Z,99.9
2018-03-08T14:07:58.796Z,99.9
2018-03-08T14:09:06.004Z,99.9
2018-03-08T14:10:12.922Z,99.9
2018-03-08T14:11:20.131Z,99.9
2018-03-08T14:12:27.058Z,99.9
2018-03-08T14:13:34.264Z,99.9
2018-03-08T14:14:41.190Z,99.9
2018-03-08T14:15:48.114Z,99.9
2018-03-08T14:16:55.047Z,99.9
2018-03-08T14:18:01.975Z,99.9
2018-03-08T14:19:08.904Z,99.9
2018-03-08T14:20:16.105Z,99.9
2018-03-08T14:21:23.489Z,99.9
2018-03-08T14:22:30.228Z,99.9
2018-03-08T14:23:37.464Z,99.9
2018-03-08T14:24:44.393Z,99.9
2018-03-08T14:25:51.052Z,97.9
2018-03-08T14:26:57.984Z,99.9
2018-03-08T14:28:04.952Z,98.6
2018-03-08T14:29:12.157Z,99.4
2018-03-08T14:30:19.364Z,95.7
2018-03-08T14:31:26.579Z,96.8
2018-03-08T14:32:33.510Z,97.8
2018-03-08T14:33:40.727Z,96.9
2018-03-08T14:34:47.931Z,96.9
2018-03-08T14:35:54.863Z,98.1
2018-03-08T14:37:02.069Z,96.9
2018-03-08T14:38:08.727Z,98.1
2018-03-08T14:39:15.939Z,98.2
2018-03-08T14:40:22.861Z,98.8
2018-03-08T14:41:29.518Z,99.9
2018-03-08T14:42:36.722Z,98.6
2018-03-08T14:43:43.932Z,99.7
2018-03-08T14:44:50.889Z,99.9
2018-03-08T14:45:57.820Z,99.6
2018-03-08T14:47:04.751Z,99.9
2018-03-08T14:48:11.951Z,99.9
2018-03-08T14:49:19.156Z,99.9
2018-03-08T14:50:26.363Z,99.9
2018-03-08T14:51:33.294Z,99.7
2018-03-08T14:52:40.509Z,99.6
2018-03-08T14:53:47.718Z,99.9
2018-03-08T14:54:54.928Z,96.7
2018-03-08T14:56:01.862Z,99.3